PWSweather.com
Personal Weather Stations
Station Observations

ChardChardGB

Lat: 50.877408, Lon: -2.94964741

Elevation: 341

Station Type: WS3083

http://www.merriott-astro.co.uk/weather/index.htm

High Low Average
Temperature 50.5°F10.3°C 38.7°F3.7°C 45.7°F7.6°C
Dew Point 47.2°F8.4°C 33.7°F0.9°C 40.1°F4.5°C
Winds 22.2 mph 35.7 kmh 3.9 mph 6.3 kmh 11.0 mph WSW17.7 kmh WSW
Wind Gusts 32.7 mph52.6 kmh 6.0 mph9.7 kmh 17.0 mph27.4 kmh
Humidity 92% 62% 81%
Pressure 29.77 in1008.1 mb 29.27 in991.2 mb -
Precipitation 0.51 in13.0 mm - -
Hour Temp Dew Point Humidity Winds Wind Gusts Pressure Precip Precip Rate Daily Precip Total
12:00 AM 47.3°F8.5°C 39.8°F4.3°C 75% 14.7 mph WSW23.7 kmh WSW 20.6 mph33.2 kmh 29.77 in1008.1 mb 0.01 in0.3 mm 0.00 in0.0 mm 0.01 in0.3 mm
12:10 AM 47.5°F8.6°C 40.0°F4.4°C 75% 12.3 mph SSW19.8 kmh SSW 18.3 mph29.5 kmh 29.76 in1007.8 mb 0.01 in0.3 mm 0.00 in0.0 mm 0.01 in0.3 mm
12:20 AM 48.0°F8.9°C 40.5°F4.7°C 75% 14.2 mph WSW22.9 kmh WSW 17.4 mph28.0 kmh 29.76 in1007.8 mb 0.01 in0.3 mm 0.00 in0.0 mm 0.01 in0.3 mm
12:30 AM 48.0°F8.9°C 40.1°F4.5°C 74% 12.8 mph S20.6 kmh S 16.8 mph27.0 kmh 29.74 in1007.1 mb 0.01 in0.3 mm 0.00 in0.0 mm 0.01 in0.3 mm
12:40 AM 47.8°F8.8°C 40.3°F4.6°C 75% 14.1 mph SSW22.7 kmh SSW 20.6 mph33.2 kmh 29.74 in1007.1 mb 0.01 in0.3 mm 0.00 in0.0 mm 0.01 in0.3 mm
12:50 AM 48.0°F8.9°C 40.8°F4.9°C 76% 13.6 mph S21.9 kmh S 20.6 mph33.2 kmh 29.73 in1006.8 mb 0.00 in0.0 mm 0.00 in0.0 mm 0.01 in0.3 mm
01:00 AM 47.7°F8.7°C 41.1°F5.1°C 78% 15.7 mph SSW25.3 kmh SSW 20.6 mph33.2 kmh 29.72 in1006.4 mb 0.00 in0.0 mm 0.00 in0.0 mm 0.01 in0.3 mm
01:10 AM 47.5°F8.6°C 41.3°F5.2°C 79% 14.0 mph SSW22.5 kmh SSW 22.8 mph36.7 kmh 29.72 in1006.4 mb 0.00 in0.0 mm 0.00 in0.0 mm 0.01 in0.3 mm
01:20 AM 47.5°F8.6°C 41.0°F5.0°C 78% 15.9 mph SE25.6 kmh SE 24.4 mph39.3 kmh 29.72 in1006.4 mb 0.00 in0.0 mm 0.00 in0.0 mm 0.01 in0.3 mm
01:30 AM 47.3°F8.5°C 41.1°F5.1°C 79% 14.6 mph S23.5 kmh S 22.1 mph35.6 kmh 29.71 in1006.1 mb 0.00 in0.0 mm 0.00 in0.0 mm 0.01 in0.3 mm
01:40 AM 47.3°F8.5°C 41.4°F5.2°C 80% 16.9 mph SW27.2 kmh SW 32.0 mph51.5 kmh 29.70 in1005.8 mb 0.00 in0.0 mm 0.00 in0.0 mm 0.01 in0.3 mm
01:50 AM 47.5°F8.6°C 41.6°F5.3°C 80% 16.1 mph SW25.9 kmh SW 23.5 mph37.8 kmh 29.70 in1005.8 mb 0.00 in0.0 mm 0.00 in0.0 mm 0.01 in0.3 mm
02:00 AM 47.5°F8.6°C 41.6°F5.3°C 80% 16.3 mph S26.2 kmh S 23.5 mph37.8 kmh 29.68 in1005.1 mb 0.00 in0.0 mm 0.00 in0.0 mm 0.01 in0.3 mm
02:10 AM 47.5°F8.6°C 41.9°F5.5°C 81% 15.4 mph WSW24.8 kmh WSW 27.3 mph43.9 kmh 29.68 in1005.1 mb 0.00 in0.0 mm 0.00 in0.0 mm 0.01 in0.3 mm
02:20 AM 47.5°F8.6°C 42.3°F5.7°C 82% 16.4 mph SW26.4 kmh SW 28.2 mph45.4 kmh 29.67 in1004.7 mb 0.01 in0.3 mm 0.06 in1.5 mm 0.01 in0.3 mm
02:30 AM 47.7°F8.7°C 42.4°F5.8°C 82% 15.9 mph SW25.6 kmh SW 21.3 mph34.3 kmh 29.67 in1004.7 mb 0.01 in0.3 mm 0.00 in0.0 mm 0.01 in0.3 mm
02:40 AM 47.7°F8.7°C 42.8°F6.0°C 83% 12.7 mph SW20.4 kmh SW 21.3 mph34.3 kmh 29.66 in1004.4 mb 0.01 in0.3 mm 0.00 in0.0 mm 0.01 in0.3 mm
02:50 AM 47.7°F8.7°C 42.8°F6.0°C 83% 14.6 mph SSW23.5 kmh SSW 19.7 mph31.7 kmh 29.65 in1004.1 mb 0.01 in0.3 mm 0.00 in0.0 mm 0.01 in0.3 mm
03:00 AM 47.7°F8.7°C 43.1°F6.2°C 84% 11.7 mph SSW18.8 kmh SSW 16.8 mph27.0 kmh 29.65 in1004.1 mb 0.01 in0.3 mm 0.00 in0.0 mm 0.01 in0.3 mm
03:10 AM 47.8°F8.8°C 43.2°F6.2°C 84% 15.2 mph SSW24.5 kmh SSW 19.7 mph31.7 kmh 29.63 in1003.4 mb 0.01 in0.3 mm 0.00 in0.0 mm 0.01 in0.3 mm
03:20 AM 47.8°F8.8°C 43.2°F6.2°C 84% 13.3 mph SSW21.4 kmh SSW 19.7 mph31.7 kmh 29.62 in1003.0 mb 0.00 in0.0 mm 0.00 in0.0 mm 0.01 in0.3 mm
03:30 AM 47.8°F8.8°C 43.2°F6.2°C 84% 13.5 mph S21.7 kmh S 19.7 mph31.7 kmh 29.62 in1003.0 mb 0.00 in0.0 mm 0.00 in0.0 mm 0.01 in0.3 mm
03:40 AM 48.0°F8.9°C 43.7°F6.5°C 85% 13.4 mph SW21.6 kmh SW 17.4 mph28.0 kmh 29.61 in1002.7 mb 0.00 in0.0 mm 0.00 in0.0 mm 0.01 in0.3 mm
03:50 AM 48.0°F8.9°C 43.7°F6.5°C 85% 15.3 mph S24.6 kmh S 24.4 mph39.3 kmh 29.59 in1002.0 mb 0.00 in0.0 mm 0.00 in0.0 mm 0.01 in0.3 mm
04:00 AM 48.2°F9.0°C 43.9°F6.6°C 85% 13.0 mph SSW20.9 kmh SSW 26.6 mph42.8 kmh 29.59 in1002.0 mb 0.01 in0.3 mm 0.01 in0.3 mm 0.02 in0.5 mm
04:10 AM 48.2°F9.0°C 43.6°F6.4°C 84% 13.9 mph SW22.4 kmh SW 19.0 mph30.6 kmh 29.57 in1001.4 mb 0.01 in0.3 mm 0.00 in0.0 mm 0.02 in0.5 mm
04:20 AM 48.2°F9.0°C 43.9°F6.6°C 85% 14.1 mph S22.7 kmh S 19.0 mph30.6 kmh 29.57 in1001.4 mb 0.01 in0.3 mm 0.00 in0.0 mm 0.02 in0.5 mm
04:30 AM 48.4°F9.1°C 44.1°F6.7°C 85% 12.7 mph SW20.4 kmh SW 17.4 mph28.0 kmh 29.56 in1001.0 mb 0.01 in0.3 mm 0.00 in0.0 mm 0.02 in0.5 mm
04:40 AM 48.4°F9.1°C 44.1°F6.7°C 85% 12.7 mph WSW20.4 kmh WSW 19.0 mph30.6 kmh 29.55 in1000.7 mb 0.01 in0.3 mm 0.00 in0.0 mm 0.02 in0.5 mm
04:50 AM 48.4°F9.1°C 44.1°F6.7°C 85% 13.7 mph SSW22.0 kmh SSW 22.8 mph36.7 kmh 29.55 in1000.7 mb 0.02 in0.5 mm 0.06 in1.5 mm 0.04 in1.0 mm
05:00 AM 48.4°F9.1°C 44.1°F6.7°C 85% 11.6 mph SW18.7 kmh SW 18.3 mph29.5 kmh 29.53 in1000.0 mb 0.01 in0.3 mm 0.00 in0.0 mm 0.04 in1.0 mm
05:10 AM 48.4°F9.1°C 44.1°F6.7°C 85% 13.6 mph S21.9 kmh S 15.9 mph25.6 kmh 29.53 in1000.0 mb 0.01 in0.3 mm 0.00 in0.0 mm 0.04 in1.0 mm
05:20 AM 48.4°F9.1°C 44.4°F6.9°C 86% 15.2 mph SW24.5 kmh SW 21.3 mph34.3 kmh 29.52 in999.7 mb 0.02 in0.5 mm 0.06 in1.5 mm 0.05 in1.3 mm
05:30 AM 48.6°F9.2°C 44.6°F7.0°C 86% 13.8 mph SSW22.2 kmh SSW 18.3 mph29.5 kmh 29.52 in999.7 mb 0.02 in0.5 mm 0.00 in0.0 mm 0.05 in1.3 mm
05:40 AM 48.6°F9.2°C 44.6°F7.0°C 86% 17.3 mph SW27.8 kmh SW 26.6 mph42.8 kmh 29.50 in999.0 mb 0.04 in1.0 mm 0.12 in3.0 mm 0.06 in1.5 mm
05:50 AM 48.6°F9.2°C 44.6°F7.0°C 86% 14.8 mph SSW23.8 kmh SSW 23.5 mph37.8 kmh 29.50 in999.0 mb 0.04 in1.0 mm 0.00 in0.0 mm 0.07 in1.8 mm
06:00 AM 48.7°F9.3°C 45.0°F7.2°C 87% 15.9 mph S25.6 kmh S 25.9 mph41.7 kmh 29.50 in999.0 mb 0.04 in1.0 mm 0.00 in0.0 mm 0.07 in1.8 mm
06:10 AM 48.7°F9.3°C 45.0°F7.2°C 87% 16.8 mph SW27.0 kmh SW 22.8 mph36.7 kmh 29.49 in998.6 mb 0.04 in1.0 mm 0.00 in0.0 mm 0.07 in1.8 mm
06:20 AM 48.7°F9.3°C 45.3°F7.4°C 88% 16.7 mph S26.9 kmh S 28.2 mph45.4 kmh 29.48 in998.3 mb 0.04 in1.0 mm 0.00 in0.0 mm 0.08 in2.0 mm
06:30 AM 48.7°F9.3°C 45.3°F7.4°C 88% 15.8 mph SW25.4 kmh SW 20.6 mph33.2 kmh 29.46 in997.6 mb 0.04 in1.0 mm 0.00 in0.0 mm 0.08 in2.0 mm
06:40 AM 48.9°F9.4°C 45.5°F7.5°C 88% 18.1 mph S29.1 kmh S 23.5 mph37.8 kmh 29.46 in997.6 mb 0.04 in1.0 mm 0.00 in0.0 mm 0.09 in2.3 mm
06:50 AM 48.9°F9.4°C 45.5°F7.5°C 88% 17.8 mph SSW28.6 kmh SSW 24.4 mph39.3 kmh 29.45 in997.3 mb 0.02 in0.5 mm 0.00 in0.0 mm 0.09 in2.3 mm
07:00 AM 48.9°F9.4°C 45.8°F7.7°C 89% 15.5 mph SW24.9 kmh SW 21.3 mph34.3 kmh 29.44 in997.0 mb 0.02 in0.5 mm 0.00 in0.0 mm 0.09 in2.3 mm
07:10 AM 49.1°F9.5°C 46.0°F7.8°C 89% 17.0 mph SSE27.4 kmh SSE 25.1 mph40.4 kmh 29.43 in996.6 mb 0.04 in1.0 mm 0.12 in3.0 mm 0.11 in2.8 mm
07:20 AM 49.1°F9.5°C 46.0°F7.8°C 89% 16.0 mph SSW25.7 kmh SSW 20.6 mph33.2 kmh 29.41 in995.9 mb 0.02 in0.5 mm 0.00 in0.0 mm 0.11 in2.8 mm
07:30 AM 49.3°F9.6°C 46.2°F7.9°C 89% 15.6 mph SSW25.1 kmh SSW 19.7 mph31.7 kmh 29.41 in995.9 mb 0.02 in0.5 mm 0.00 in0.0 mm 0.11 in2.8 mm
07:40 AM 49.3°F9.6°C 46.2°F7.9°C 89% 16.9 mph SW27.2 kmh SW 27.3 mph43.9 kmh 29.40 in995.6 mb 0.01 in0.3 mm 0.00 in0.0 mm 0.11 in2.8 mm
07:50 AM 49.3°F9.6°C 46.2°F7.9°C 89% 18.3 mph WSW29.5 kmh WSW 25.1 mph40.4 kmh 29.39 in995.3 mb 0.02 in0.5 mm 0.06 in1.5 mm 0.12 in3.0 mm
08:00 AM 49.5°F9.7°C 46.4°F8.0°C 89% 19.6 mph SW31.5 kmh SW 28.2 mph45.4 kmh 29.38 in994.9 mb 0.04 in1.0 mm 0.02 in0.5 mm 0.13 in3.3 mm
08:10 AM 49.5°F9.7°C 46.4°F8.0°C 89% 19.4 mph SSW31.2 kmh SSW 27.3 mph43.9 kmh 29.36 in994.2 mb 0.04 in1.0 mm 0.00 in0.0 mm 0.14 in3.6 mm
08:20 AM 49.5°F9.7°C 46.7°F8.2°C 90% 17.2 mph SW27.7 kmh SW 27.3 mph43.9 kmh 29.36 in994.2 mb 0.05 in1.3 mm 0.06 in1.5 mm 0.15 in3.8 mm
08:30 AM 49.5°F9.7°C 46.7°F8.2°C 90% 18.4 mph SW29.6 kmh SW 23.5 mph37.8 kmh 29.35 in993.9 mb 0.06 in1.5 mm 0.06 in1.5 mm 0.17 in4.3 mm
08:40 AM 49.6°F9.8°C 46.8°F8.2°C 90% 19.7 mph SSW31.7 kmh SSW 30.4 mph48.9 kmh 29.35 in993.9 mb 0.07 in1.8 mm 0.06 in1.5 mm 0.18 in4.6 mm
08:50 AM 49.6°F9.8°C 46.8°F8.2°C 90% 20.6 mph SSW33.2 kmh SSW 25.9 mph41.7 kmh 29.33 in993.2 mb 0.06 in1.5 mm 0.00 in0.0 mm 0.18 in4.6 mm
09:00 AM 49.6°F9.8°C 46.8°F8.2°C 90% 21.3 mph SSW34.3 kmh SSW 26.6 mph42.8 kmh 29.32 in992.9 mb 0.06 in1.5 mm 0.00 in0.0 mm 0.19 in4.8 mm
09:10 AM 49.6°F9.8°C 46.8°F8.2°C 90% 21.0 mph S33.8 kmh S 32.0 mph51.5 kmh 29.31 in992.6 mb 0.06 in1.5 mm 0.00 in0.0 mm 0.20 in5.1 mm
09:20 AM 49.6°F9.8°C 46.8°F8.2°C 90% 20.4 mph SSW32.8 kmh SSW 32.0 mph51.5 kmh 29.31 in992.6 mb 0.06 in1.5 mm 0.00 in0.0 mm 0.21 in5.3 mm
09:30 AM 49.6°F9.8°C 46.8°F8.2°C 90% 20.2 mph S32.5 kmh S 28.9 mph46.5 kmh 29.30 in992.2 mb 0.06 in1.5 mm 0.00 in0.0 mm 0.22 in5.6 mm
09:40 AM 49.6°F9.8°C 46.8°F8.2°C 90% 22.2 mph SSW35.7 kmh SSW 32.7 mph52.6 kmh 29.28 in991.5 mb 0.07 in1.8 mm 0.06 in1.5 mm 0.25 in6.4 mm
09:50 AM 49.8°F9.9°C 47.0°F8.3°C 90% 20.6 mph SSW33.2 kmh SSW 31.1 mph50.1 kmh 29.28 in991.5 mb 0.11 in2.8 mm 0.24 in6.1 mm 0.28 in7.1 mm
10:00 AM 49.8°F9.9°C 47.0°F8.3°C 90% 19.3 mph SSW31.1 kmh SSW 29.8 mph48.0 kmh 29.27 in991.2 mb 0.11 in2.8 mm 0.00 in0.0 mm 0.30 in7.6 mm
10:10 AM 50.0°F10.0°C 47.2°F8.4°C 90% 18.0 mph SSW29.0 kmh SSW 24.4 mph39.3 kmh 29.27 in991.2 mb 0.13 in3.3 mm 0.12 in3.0 mm 0.33 in8.4 mm
10:20 AM 47.8°F8.8°C 45.1°F7.3°C 90% 12.0 mph WNW19.3 kmh WNW 20.6 mph33.2 kmh 29.30 in992.2 mb 0.15 in3.8 mm 0.12 in3.0 mm 0.37 in9.4 mm
10:30 AM 44.8°F7.1°C 42.6°F5.9°C 92% 11.2 mph NNW18.0 kmh NNW 14.5 mph23.3 kmh 29.31 in992.6 mb 0.15 in3.8 mm 0.00 in0.0 mm 0.38 in9.7 mm
10:40 AM 43.7°F6.5°C 41.5°F5.3°C 92% 13.6 mph WNW21.9 kmh WNW 20.6 mph33.2 kmh 29.31 in992.6 mb 0.14 in3.6 mm 0.00 in0.0 mm 0.39 in9.9 mm
10:50 AM 43.2°F6.2°C 41.0°F5.0°C 92% 9.5 mph NW15.3 kmh NW 12.1 mph19.5 kmh 29.32 in992.9 mb 0.12 in3.0 mm 0.00 in0.0 mm 0.40 in10.2 mm
11:00 AM 42.6°F5.9°C 40.2°F4.6°C 91% 8.1 mph NW13.0 kmh NW 11.4 mph18.3 kmh 29.32 in992.9 mb 0.11 in2.8 mm 0.00 in0.0 mm 0.40 in10.2 mm
11:10 AM 41.9°F5.5°C 39.5°F4.2°C 91% 9.7 mph NW15.6 kmh NW 13.0 mph20.9 kmh 29.32 in992.9 mb 0.08 in2.0 mm 0.00 in0.0 mm 0.41 in10.4 mm
11:20 AM 41.5°F5.3°C 39.1°F3.9°C 91% 7.3 mph NW11.7 kmh NW 9.8 mph15.8 kmh 29.32 in992.9 mb 0.06 in1.5 mm 0.00 in0.0 mm 0.43 in10.9 mm
11:30 AM 40.8°F4.9°C 38.4°F3.6°C 91% 8.1 mph NW13.0 kmh NW 11.4 mph18.3 kmh 29.32 in992.9 mb 0.05 in1.3 mm 0.00 in0.0 mm 0.43 in10.9 mm
11:40 AM 40.5°F4.7°C 38.0°F3.3°C 91% 7.6 mph NW12.2 kmh NW 11.4 mph18.3 kmh 29.32 in992.9 mb 0.05 in1.3 mm 0.00 in0.0 mm 0.44 in11.2 mm
11:50 AM 40.1°F4.5°C 37.7°F3.2°C 91% 5.0 mph NW8.0 kmh NW 7.6 mph12.2 kmh 29.33 in993.2 mb 0.05 in1.3 mm 0.00 in0.0 mm 0.45 in11.4 mm
12:00 PM 39.6°F4.2°C 36.9°F2.7°C 90% 7.6 mph WNW12.2 kmh WNW 9.8 mph15.8 kmh 29.34 in993.6 mb 0.05 in1.3 mm 0.00 in0.0 mm 0.45 in11.4 mm
12:10 PM 39.0°F3.9°C 36.3°F2.4°C 90% 7.5 mph NW12.1 kmh NW 9.2 mph14.8 kmh 29.32 in992.9 mb 0.06 in1.5 mm 0.06 in1.5 mm 0.47 in11.9 mm
12:20 PM 38.8°F3.8°C 36.2°F2.3°C 90% 5.4 mph WNW8.7 kmh WNW 9.2 mph14.8 kmh 29.33 in993.2 mb 0.05 in1.3 mm 0.00 in0.0 mm 0.47 in11.9 mm
12:30 PM 38.7°F3.7°C 36.0°F2.2°C 90% 6.6 mph NW10.6 kmh NW 9.2 mph14.8 kmh 29.34 in993.6 mb 0.05 in1.3 mm 0.00 in0.0 mm 0.47 in11.9 mm
12:40 PM 39.0°F3.9°C 36.3°F2.4°C 90% 5.1 mph NW8.2 kmh NW 7.6 mph12.2 kmh 29.34 in993.6 mb 0.05 in1.3 mm 0.00 in0.0 mm 0.48 in12.2 mm
12:50 PM 39.2°F4.0°C 36.5°F2.5°C 90% 5.2 mph NW8.4 kmh NW 9.2 mph14.8 kmh 29.34 in993.6 mb 0.04 in1.0 mm 0.00 in0.0 mm 0.48 in12.2 mm
01:00 PM 39.6°F4.2°C 37.2°F2.9°C 91% 5.4 mph NW8.7 kmh NW 8.3 mph13.4 kmh 29.34 in993.6 mb 0.04 in1.0 mm 0.00 in0.0 mm 0.48 in12.2 mm
01:10 PM 40.1°F4.5°C 37.7°F3.2°C 91% 3.9 mph NW6.3 kmh NW 6.0 mph9.7 kmh 29.34 in993.6 mb 0.01 in0.3 mm 0.00 in0.0 mm 0.48 in12.2 mm
01:20 PM 40.3°F4.6°C 37.9°F3.3°C 91% 5.1 mph NW8.2 kmh NW 6.9 mph11.1 kmh 29.35 in993.9 mb 0.01 in0.3 mm 0.00 in0.0 mm 0.48 in12.2 mm
01:30 PM 40.6°F4.8°C 38.2°F3.4°C 91% 5.9 mph NW9.5 kmh NW 9.8 mph15.8 kmh 29.36 in994.2 mb 0.01 in0.3 mm 0.00 in0.0 mm 0.48 in12.2 mm
01:40 PM 41.0°F5.0°C 38.6°F3.7°C 91% 5.7 mph W9.2 kmh W 8.3 mph13.4 kmh 29.36 in994.2 mb 0.00 in0.0 mm 0.00 in0.0 mm 0.48 in12.2 mm
01:50 PM 41.4°F5.2°C 38.9°F3.8°C 91% 6.6 mph NNW10.6 kmh NNW 13.0 mph20.9 kmh 29.35 in993.9 mb 0.01 in0.3 mm 0.06 in1.5 mm 0.50 in12.7 mm
02:00 PM 41.5°F5.3°C 39.1°F3.9°C 91% 6.7 mph NW10.8 kmh NW 8.3 mph13.4 kmh 29.36 in994.2 mb 0.01 in0.3 mm 0.00 in0.0 mm 0.50 in12.7 mm
02:10 PM 43.0°F6.1°C 40.8°F4.9°C 92% 5.4 mph NW8.7 kmh NW 8.3 mph13.4 kmh 29.35 in993.9 mb 0.01 in0.3 mm 0.00 in0.0 mm 0.50 in12.7 mm
02:20 PM 43.2°F6.2°C 41.0°F5.0°C 92% 7.4 mph WSW11.9 kmh WSW 14.5 mph23.3 kmh 29.36 in994.2 mb 0.01 in0.3 mm 0.00 in0.0 mm 0.50 in12.7 mm
02:30 PM 43.9°F6.6°C 41.7°F5.4°C 92% 7.6 mph W12.2 kmh W 14.5 mph23.3 kmh 29.36 in994.2 mb 0.01 in0.3 mm 0.00 in0.0 mm 0.50 in12.7 mm
02:40 PM 43.3°F6.3°C 41.2°F5.1°C 92% 9.0 mph NW14.5 kmh NW 13.0 mph20.9 kmh 29.37 in994.6 mb 0.01 in0.3 mm 0.00 in0.0 mm 0.50 in12.7 mm
02:50 PM 44.1°F6.7°C 41.9°F5.5°C 92% 10.0 mph NW16.1 kmh NW 13.0 mph20.9 kmh 29.36 in994.2 mb 0.00 in0.0 mm 0.00 in0.0 mm 0.50 in12.7 mm
03:00 PM 44.8°F7.1°C 42.3°F5.7°C 91% 11.0 mph WNW17.7 kmh WNW 14.5 mph23.3 kmh 29.36 in994.2 mb 0.00 in0.0 mm 0.00 in0.0 mm 0.50 in12.7 mm
03:10 PM 46.6°F8.1°C 42.9°F6.1°C 87% 7.4 mph NW11.9 kmh NW 10.7 mph17.2 kmh 29.37 in994.6 mb 0.00 in0.0 mm 0.00 in0.0 mm 0.50 in12.7 mm
03:20 PM 47.3°F8.5°C 43.3°F6.3°C 86% 7.3 mph NW11.7 kmh NW 8.3 mph13.4 kmh 29.36 in994.2 mb 0.00 in0.0 mm 0.00 in0.0 mm 0.50 in12.7 mm
03:30 PM 47.8°F8.8°C 43.2°F6.2°C 84% 7.8 mph NW12.6 kmh NW 10.7 mph17.2 kmh 29.37 in994.6 mb 0.00 in0.0 mm 0.00 in0.0 mm 0.50 in12.7 mm
03:40 PM 47.8°F8.8°C 41.3°F5.2°C 78% 10.1 mph W16.3 kmh W 14.5 mph23.3 kmh 29.38 in994.9 mb 0.00 in0.0 mm 0.00 in0.0 mm 0.50 in12.7 mm
03:50 PM 46.9°F8.3°C 37.7°F3.2°C 70% 12.0 mph NNW19.3 kmh NNW 17.4 mph28.0 kmh 29.38 in994.9 mb 0.00 in0.0 mm 0.00 in0.0 mm 0.50 in12.7 mm
04:00 PM 47.5°F8.6°C 39.3°F4.1°C 73% 6.1 mph W9.8 kmh W 9.2 mph14.8 kmh 29.39 in995.3 mb 0.00 in0.0 mm 0.00 in0.0 mm 0.50 in12.7 mm
04:10 PM 49.3°F9.6°C 41.0°F5.0°C 73% 7.4 mph NW11.9 kmh NW 10.7 mph17.2 kmh 29.39 in995.3 mb 0.00 in0.0 mm 0.00 in0.0 mm 0.50 in12.7 mm
04:20 PM 50.4°F10.2°C 41.3°F5.2°C 71% 6.0 mph NW9.7 kmh NW 8.3 mph13.4 kmh 29.39 in995.3 mb 0.00 in0.0 mm 0.00 in0.0 mm 0.50 in12.7 mm
04:30 PM 50.5°F10.3°C 39.6°F4.2°C 66% 6.7 mph W10.8 kmh W 10.7 mph17.2 kmh 29.39 in995.3 mb 0.00 in0.0 mm 0.00 in0.0 mm 0.50 in12.7 mm
04:40 PM 49.3°F9.6°C 36.8°F2.7°C 62% 8.9 mph WNW14.3 kmh WNW 17.4 mph28.0 kmh 29.39 in995.3 mb 0.00 in0.0 mm 0.00 in0.0 mm 0.50 in12.7 mm
04:50 PM 47.1°F8.4°C 35.2°F1.8°C 63% 10.2 mph NW16.4 kmh NW 21.3 mph34.3 kmh 29.39 in995.3 mb 0.00 in0.0 mm 0.00 in0.0 mm 0.50 in12.7 mm
05:00 PM 46.0°F7.8°C 34.2°F1.2°C 63% 10.0 mph WNW16.1 kmh WNW 15.2 mph24.5 kmh 29.39 in995.3 mb 0.00 in0.0 mm 0.00 in0.0 mm 0.50 in12.7 mm
05:10 PM 45.3°F7.4°C 36.1°F2.3°C 70% 9.5 mph WNW15.3 kmh WNW 12.1 mph19.5 kmh 29.41 in995.9 mb 0.00 in0.0 mm 0.00 in0.0 mm 0.50 in12.7 mm
05:20 PM 43.9°F6.6°C 35.4°F1.9°C 72% 10.2 mph WNW16.4 kmh WNW 13.6 mph21.9 kmh 29.40 in995.6 mb 0.00 in0.0 mm 0.00 in0.0 mm 0.50 in12.7 mm
05:30 PM 43.3°F6.3°C 36.6°F2.6°C 77% 6.8 mph WSW10.9 kmh WSW 9.8 mph15.8 kmh 29.40 in995.6 mb 0.01 in0.3 mm 0.06 in1.5 mm 0.51 in13.0 mm
05:40 PM 43.3°F6.3°C 36.6°F2.6°C 77% 8.8 mph W14.2 kmh W 12.1 mph19.5 kmh 29.39 in995.3 mb 0.01 in0.3 mm 0.00 in0.0 mm 0.51 in13.0 mm
05:50 PM 43.3°F6.3°C 36.0°F2.2°C 75% 8.6 mph WSW13.8 kmh WSW 12.1 mph19.5 kmh 29.41 in995.9 mb 0.01 in0.3 mm 0.00 in0.0 mm 0.51 in13.0 mm
06:00 PM 43.3°F6.3°C 35.6°F2.0°C 74% 7.5 mph W12.1 kmh W 13.0 mph20.9 kmh 29.41 in995.9 mb 0.01 in0.3 mm 0.00 in0.0 mm 0.51 in13.0 mm
06:10 PM 43.2°F6.2°C 35.4°F1.9°C 74% 7.3 mph NW11.7 kmh NW 15.9 mph25.6 kmh 29.41 in995.9 mb 0.01 in0.3 mm 0.00 in0.0 mm 0.51 in13.0 mm
06:20 PM 43.3°F6.3°C 34.9°F1.6°C 72% 8.7 mph WSW14.0 kmh WSW 11.4 mph18.3 kmh 29.42 in996.3 mb 0.01 in0.3 mm 0.00 in0.0 mm 0.51 in13.0 mm
06:30 PM 43.5°F6.4°C 34.4°F1.3°C 70% 8.7 mph W14.0 kmh W 13.6 mph21.9 kmh 29.43 in996.6 mb 0.00 in0.0 mm 0.00 in0.0 mm 0.51 in13.0 mm
06:40 PM 43.3°F6.3°C 34.2°F1.2°C 70% 9.6 mph W15.4 kmh W 13.6 mph21.9 kmh 29.43 in996.6 mb 0.00 in0.0 mm 0.00 in0.0 mm 0.51 in13.0 mm
06:50 PM 43.3°F6.3°C 34.2°F1.2°C 70% 6.7 mph S10.8 kmh S 9.2 mph14.8 kmh 29.44 in997.0 mb 0.00 in0.0 mm 0.00 in0.0 mm 0.51 in13.0 mm
07:00 PM 43.3°F6.3°C 34.2°F1.2°C 70% 6.5 mph SW10.5 kmh SW 9.2 mph14.8 kmh 29.45 in997.3 mb 0.00 in0.0 mm 0.00 in0.0 mm 0.51 in13.0 mm
07:10 PM 43.3°F6.3°C 34.2°F1.2°C 70% 7.5 mph SSW12.1 kmh SSW 11.4 mph18.3 kmh 29.45 in997.3 mb 0.00 in0.0 mm 0.00 in0.0 mm 0.51 in13.0 mm
07:20 PM 43.3°F6.3°C 34.2°F1.2°C 70% 8.5 mph SW13.7 kmh SW 12.1 mph19.5 kmh 29.45 in997.3 mb 0.00 in0.0 mm 0.00 in0.0 mm 0.51 in13.0 mm
07:30 PM 43.3°F6.3°C 33.9°F1.1°C 69% 11.3 mph SW18.2 kmh SW 15.2 mph24.5 kmh 29.45 in997.3 mb 0.00 in0.0 mm 0.00 in0.0 mm 0.51 in13.0 mm
07:40 PM 43.3°F6.3°C 33.9°F1.1°C 69% 7.6 mph SSW12.2 kmh SSW 12.1 mph19.5 kmh 29.45 in997.3 mb 0.00 in0.0 mm 0.00 in0.0 mm 0.51 in13.0 mm
07:50 PM 43.2°F6.2°C 34.1°F1.2°C 70% 8.4 mph SSW13.5 kmh SSW 14.5 mph23.3 kmh 29.46 in997.6 mb 0.00 in0.0 mm 0.00 in0.0 mm 0.51 in13.0 mm
08:00 PM 43.2°F6.2°C 33.7°F0.9°C 69% 7.2 mph SW11.6 kmh SW 14.5 mph23.3 kmh 29.46 in997.6 mb 0.00 in0.0 mm 0.00 in0.0 mm 0.51 in13.0 mm
08:10 PM 43.0°F6.1°C 33.9°F1.1°C 70% 7.6 mph SW12.2 kmh SW 10.7 mph17.2 kmh 29.46 in997.6 mb 0.00 in0.0 mm 0.00 in0.0 mm 0.51 in13.0 mm
08:20 PM 43.3°F6.3°C 34.2°F1.2°C 70% 7.5 mph SW12.1 kmh SW 13.6 mph21.9 kmh 29.46 in997.6 mb 0.00 in0.0 mm 0.00 in0.0 mm 0.51 in13.0 mm
08:30 PM 43.2°F6.2°C 34.1°F1.2°C 70% 6.4 mph SW10.3 kmh SW 10.7 mph17.2 kmh 29.45 in997.3 mb 0.00 in0.0 mm 0.00 in0.0 mm 0.51 in13.0 mm
08:40 PM 43.0°F6.1°C 33.9°F1.1°C 70% 7.0 mph SW11.3 kmh SW 10.7 mph17.2 kmh 29.45 in997.3 mb 0.00 in0.0 mm 0.00 in0.0 mm 0.51 in13.0 mm
08:50 PM 42.8°F6.0°C 33.7°F0.9°C 70% 7.6 mph SW12.2 kmh SW 10.7 mph17.2 kmh 29.45 in997.3 mb 0.00 in0.0 mm 0.00 in0.0 mm 0.51 in13.0 mm
09:00 PM 42.8°F6.0°C 33.7°F0.9°C 70% 6.0 mph SW9.7 kmh SW 7.6 mph12.2 kmh 29.45 in997.3 mb 0.00 in0.0 mm 0.00 in0.0 mm 0.51 in13.0 mm
09:10 PM 42.4°F5.8°C 33.7°F0.9°C 71% 5.0 mph SW8.0 kmh SW 8.3 mph13.4 kmh 29.45 in997.3 mb 0.00 in0.0 mm 0.00 in0.0 mm 0.51 in13.0 mm
09:20 PM 42.6°F5.9°C 33.9°F1.1°C 71% 6.5 mph SSW10.5 kmh SSW 8.3 mph13.4 kmh 29.45 in997.3 mb 0.00 in0.0 mm 0.00 in0.0 mm 0.51 in13.0 mm
09:30 PM 42.8°F6.0°C 34.1°F1.2°C 71% 7.7 mph SSW12.4 kmh SSW 9.8 mph15.8 kmh 29.46 in997.6 mb 0.00 in0.0 mm 0.00 in0.0 mm 0.51 in13.0 mm
09:40 PM 43.0°F6.1°C 34.6°F1.4°C 72% 8.5 mph SW13.7 kmh SW 10.7 mph17.2 kmh 29.45 in997.3 mb 0.00 in0.0 mm 0.00 in0.0 mm 0.51 in13.0 mm
09:50 PM 43.2°F6.2°C 34.8°F1.6°C 72% 8.6 mph WSW13.8 kmh WSW 13.0 mph20.9 kmh 29.46 in997.6 mb 0.00 in0.0 mm 0.00 in0.0 mm 0.51 in13.0 mm
10:00 PM 43.5°F6.4°C 35.1°F1.7°C 72% 7.9 mph WSW12.7 kmh WSW 13.0 mph20.9 kmh 29.45 in997.3 mb 0.00 in0.0 mm 0.00 in0.0 mm 0.51 in13.0 mm
10:10 PM 43.7°F6.5°C 35.3°F1.8°C 72% 8.2 mph WSW13.2 kmh WSW 12.1 mph19.5 kmh 29.45 in997.3 mb 0.00 in0.0 mm 0.00 in0.0 mm 0.51 in13.0 mm
10:20 PM 43.9°F6.6°C 35.1°F1.7°C 71% 10.6 mph WSW17.1 kmh WSW 13.6 mph21.9 kmh 29.46 in997.6 mb 0.00 in0.0 mm 0.00 in0.0 mm 0.51 in13.0 mm
10:30 PM 44.1°F6.7°C 34.9°F1.6°C 70% 9.1 mph SW14.6 kmh SW 12.1 mph19.5 kmh 29.46 in997.6 mb 0.00 in0.0 mm 0.00 in0.0 mm 0.51 in13.0 mm
10:40 PM 44.2°F6.8°C 35.1°F1.7°C 70% 11.2 mph WSW18.0 kmh WSW 15.2 mph24.5 kmh 29.45 in997.3 mb 0.00 in0.0 mm 0.00 in0.0 mm 0.51 in13.0 mm
10:50 PM 44.4°F6.9°C 34.9°F1.6°C 69% 11.9 mph WSW19.2 kmh WSW 19.0 mph30.6 kmh 29.46 in997.6 mb 0.00 in0.0 mm 0.00 in0.0 mm 0.51 in13.0 mm
11:00 PM 44.2°F6.8°C 34.7°F1.5°C 69% 8.8 mph SW14.2 kmh SW 13.6 mph21.9 kmh 29.47 in998.0 mb 0.00 in0.0 mm 0.00 in0.0 mm 0.51 in13.0 mm
11:10 PM 44.2°F6.8°C 35.1°F1.7°C 70% 7.1 mph SW11.4 kmh SW 10.7 mph17.2 kmh 29.46 in997.6 mb 0.00 in0.0 mm 0.00 in0.0 mm 0.51 in13.0 mm
11:20 PM 44.2°F6.8°C 35.1°F1.7°C 70% 9.1 mph WSW14.6 kmh WSW 14.5 mph23.3 kmh 29.46 in997.6 mb 0.00 in0.0 mm 0.00 in0.0 mm 0.51 in13.0 mm
11:30 PM 44.4°F6.9°C 35.3°F1.8°C 70% 10.3 mph WSW16.6 kmh WSW 15.9 mph25.6 kmh 29.47 in998.0 mb 0.00 in0.0 mm 0.00 in0.0 mm 0.51 in13.0 mm
11:40 PM 44.4°F6.9°C 35.3°F1.8°C 70% 8.8 mph SW14.2 kmh SW 15.2 mph24.5 kmh 29.48 in998.3 mb 0.00 in0.0 mm 0.00 in0.0 mm 0.51 in13.0 mm
11:50 PM 44.8°F7.1°C 34.9°F1.6°C 68% 9.1 mph SW14.6 kmh SW 15.2 mph24.5 kmh 29.48 in998.3 mb 0.00 in0.0 mm 0.00 in0.0 mm 0.51 in13.0 mm